KTVL/TVL METAR and TAF weather

Enter ICAO airport designator
Station Type Date Time Source
KTVL METAR 2020/07/05 16:53 UTC NOAA

KTVL 051653Z AUTO 03006KT 10SM CLR 19/04 A3025 RMK AO2 SLP188 T01940039


Station Type Date Time Source
KTVL Decoded METAR 2020/07/05 16:53 UTC NOAA

SOUTH LAKE TAHOE AIRPORT, CA, United States (KTVL) 38-53N 119-59W 1925M
Jul 05, 2020 - 12:53 PM EDT / 2020.07.05 1653 UTC
Wind: from the NNE (030 degrees) at 7 MPH (6 KT):0
Visibility: 10 mile(s):0
Sky conditions: clear
Temperature: 66.9 F (19.4 C)
Dew Point: 39.0 F (3.9 C)
Relative Humidity: 35%
Pressure (altimeter): 30.25 in. Hg (1024 hPa)
ob: KTVL 051653Z AUTO 03006KT 10SM CLR 19/04 A3025 RMK AO2 SLP188 T01940039
cycle: 17

Station Type Date Time Source
KTVL TAF 2020/07/05 12:22 UTC NOAA

TAF KTVL 051120Z 0512/0612 VRB03KT P6SM SKC
FM051800 20010G18KT P6SM SKC
FM060300 VRB03KT P6SM SKC

Example: see airport list